sensor_id;sensor_type;location;lat;lon;timestamp;P1;durP1;ratioP1;P2;durP2;ratioP2
28625;SDS011;18905;42.668;23.364;2022-10-26T00:02:21;19.55;;;6.20;;
28625;SDS011;18905;42.668;23.364;2022-10-26T00:04:47;20.77;;;6.20;;
28625;SDS011;18905;42.668;23.364;2022-10-26T00:07:12;14.07;;;5.75;;
28625;SDS011;18905;42.668;23.364;2022-10-26T00:09:37;16.67;;;6.05;;
28625;SDS011;18905;42.668;23.364;2022-10-26T00:12:03;16.13;;;6.72;;
28625;SDS011;18905;42.668;23.364;2022-10-26T00:14:28;22.80;;;6.35;;
28625;SDS011;18905;42.668;23.364;2022-10-26T00:16:54;15.18;;;6.63;;
28625;SDS011;18905;42.668;23.364;2022-10-26T00:19:19;19.33;;;6.03;;
28625;SDS011;18905;42.668;23.364;2022-10-26T00:21:45;16.95;;;6.60;;
28625;SDS011;18905;42.668;23.364;2022-10-26T00:24:10;16.70;;;6.35;;
28625;SDS011;18905;42.668;23.364;2022-10-26T00:26:37;16.80;;;6.03;;
28625;SDS011;18905;42.668;23.364;2022-10-26T00:29:03;20.92;;;6.53;;
28625;SDS011;18905;42.668;23.364;2022-10-26T00:31:28;15.80;;;6.10;;
28625;SDS011;18905;42.668;23.364;2022-10-26T00:33:54;13.10;;;6.05;;
28625;SDS011;18905;42.668;23.364;2022-10-26T00:36:21;14.68;;;6.43;;
28625;SDS011;18905;42.668;23.364;2022-10-26T00:38:51;14.75;;;5.57;;
28625;SDS011;18905;42.668;23.364;2022-10-26T00:41:19;15.65;;;5.35;;
28625;SDS011;18905;42.668;23.364;2022-10-26T00:43:46;16.70;;;5.47;;
28625;SDS011;18905;42.668;23.364;2022-10-26T00:46:17;16.88;;;6.40;;
28625;SDS011;18905;42.668;23.364;2022-10-26T00:48:50;18.98;;;5.97;;
28625;SDS011;18905;42.668;23.364;2022-10-26T00:51:32;15.45;;;5.85;;
28625;SDS011;18905;42.668;23.364;2022-10-26T00:54:06;14.52;;;5.63;;
28625;SDS011;18905;42.668;23.364;2022-10-26T00:56:39;19.00;;;6.18;;
28625;SDS011;18905;42.668;23.364;2022-10-26T00:59:07;18.13;;;5.72;;
28625;SDS011;18905;42.668;23.364;2022-10-26T01:01:35;17.55;;;6.25;;
28625;SDS011;18905;42.668;23.364;2022-10-26T01:04:03;16.23;;;6.45;;
28625;SDS011;18905;42.668;23.364;2022-10-26T01:06:29;13.73;;;5.78;;
28625;SDS011;18905;42.668;23.364;2022-10-26T01:08:56;17.05;;;5.75;;
28625;SDS011;18905;42.668;23.364;2022-10-26T01:11:21;15.32;;;6.30;;
28625;SDS011;18905;42.668;23.364;2022-10-26T01:13:47;14.80;;;6.03;;
28625;SDS011;18905;42.668;23.364;2022-10-26T01:19:20;16.00;;;5.90;;
28625;SDS011;18905;42.668;23.364;2022-10-26T01:21:59;14.75;;;6.15;;
28625;SDS011;18905;42.668;23.364;2022-10-26T01:35:11;16.85;;;7.00;;
28625;SDS011;18905;42.668;23.364;2022-10-26T01:37:46;17.17;;;7.28;;
28625;SDS011;18905;42.668;23.364;2022-10-26T01:40:23;17.73;;;6.80;;
28625;SDS011;18905;42.668;23.364;2022-10-26T01:42:56;15.55;;;6.43;;
28625;SDS011;18905;42.668;23.364;2022-10-26T01:45:26;19.27;;;6.45;;
28625;SDS011;18905;42.668;23.364;2022-10-26T01:47:54;18.50;;;6.90;;
28625;SDS011;18905;42.668;23.364;2022-10-26T01:50:21;11.68;;;6.00;;
28625;SDS011;18905;42.668;23.364;2022-10-26T01:52:48;15.65;;;6.25;;
28625;SDS011;18905;42.668;23.364;2022-10-26T01:58:04;16.80;;;6.50;;
28625;SDS011;18905;42.668;23.364;2022-10-26T02:00:46;15.73;;;6.28;;
28625;SDS011;18905;42.668;23.364;2022-10-26T02:04:40;17.30;;;6.55;;
28625;SDS011;18905;42.668;23.364;2022-10-26T02:11:52;13.77;;;6.07;;
28625;SDS011;18905;42.668;23.364;2022-10-26T02:22:21;20.75;;;9.77;;
28625;SDS011;18905;42.668;23.364;2022-10-26T02:24:51;23.77;;;11.15;;
28625;SDS011;18905;42.668;23.364;2022-10-26T02:27:40;27.42;;;10.35;;
28625;SDS011;18905;42.668;23.364;2022-10-26T02:30:07;29.75;;;11.32;;
28625;SDS011;18905;42.668;23.364;2022-10-26T02:32:35;32.72;;;11.93;;
28625;SDS011;18905;42.668;23.364;2022-10-26T02:35:05;28.00;;;10.40;;
28625;SDS011;18905;42.668;23.364;2022-10-26T02:37:31;25.60;;;11.20;;
28625;SDS011;18905;42.668;23.364;2022-10-26T02:39:59;22.63;;;10.90;;
28625;SDS011;18905;42.668;23.364;2022-10-26T02:42:28;28.50;;;11.00;;
28625;SDS011;18905;42.668;23.364;2022-10-26T02:44:59;28.83;;;12.10;;
28625;SDS011;18905;42.668;23.364;2022-10-26T02:47:29;41.90;;;11.85;;
28625;SDS011;18905;42.668;23.364;2022-10-26T02:49:56;34.90;;;11.20;;
28625;SDS011;18905;42.668;23.364;2022-10-26T02:55:44;31.27;;;11.38;;
28625;SDS011;18905;42.668;23.364;2022-10-26T02:58:27;30.02;;;12.68;;
28625;SDS011;18905;42.668;23.364;2022-10-26T03:00:57;38.15;;;12.05;;
28625;SDS011;18905;42.668;23.364;2022-10-26T03:03:23;34.45;;;12.85;;
28625;SDS011;18905;42.668;23.364;2022-10-26T03:05:49;28.60;;;12.63;;
28625;SDS011;18905;42.668;23.364;2022-10-26T03:08:15;27.77;;;13.07;;
28625;SDS011;18905;42.668;23.364;2022-10-26T03:10:41;31.70;;;12.48;;
28625;SDS011;18905;42.668;23.364;2022-10-26T03:13:08;25.13;;;13.13;;
28625;SDS011;18905;42.668;23.364;2022-10-26T03:15:35;30.85;;;12.95;;
28625;SDS011;18905;42.668;23.364;2022-10-26T03:18:00;42.17;;;13.15;;
28625;SDS011;18905;42.668;23.364;2022-10-26T03:20:26;31.45;;;11.80;;
28625;SDS011;18905;42.668;23.364;2022-10-26T03:22:51;34.47;;;12.30;;
28625;SDS011;18905;42.668;23.364;2022-10-26T03:25:17;30.42;;;12.60;;
28625;SDS011;18905;42.668;23.364;2022-10-26T03:27:42;25.35;;;11.95;;
28625;SDS011;18905;42.668;23.364;2022-10-26T03:30:08;24.58;;;11.98;;
28625;SDS011;18905;42.668;23.364;2022-10-26T03:32:34;27.17;;;10.85;;
28625;SDS011;18905;42.668;23.364;2022-10-26T03:34:59;31.80;;;12.25;;
28625;SDS011;18905;42.668;23.364;2022-10-26T03:37:25;23.33;;;11.23;;
28625;SDS011;18905;42.668;23.364;2022-10-26T03:39:51;25.88;;;10.90;;
28625;SDS011;18905;42.668;23.364;2022-10-26T03:42:16;21.70;;;10.45;;
28625;SDS011;18905;42.668;23.364;2022-10-26T03:44:42;19.83;;;10.13;;
28625;SDS011;18905;42.668;23.364;2022-10-26T03:47:07;22.33;;;9.82;;
28625;SDS011;18905;42.668;23.364;2022-10-26T03:49:32;33.90;;;11.20;;
28625;SDS011;18905;42.668;23.364;2022-10-26T03:51:58;18.05;;;9.73;;
28625;SDS011;18905;42.668;23.364;2022-10-26T03:54:23;21.70;;;9.43;;
28625;SDS011;18905;42.668;23.364;2022-10-26T03:56:49;19.33;;;9.35;;
28625;SDS011;18905;42.668;23.364;2022-10-26T03:59:14;20.38;;;9.75;;
28625;SDS011;18905;42.668;23.364;2022-10-26T04:01:40;15.57;;;8.60;;
28625;SDS011;18905;42.668;23.364;2022-10-26T04:04:05;18.85;;;8.55;;
28625;SDS011;18905;42.668;23.364;2022-10-26T04:06:30;17.17;;;8.23;;
28625;SDS011;18905;42.668;23.364;2022-10-26T04:08:56;18.88;;;8.88;;
28625;SDS011;18905;42.668;23.364;2022-10-26T04:11:26;20.27;;;7.97;;
28625;SDS011;18905;42.668;23.364;2022-10-26T04:13:54;18.02;;;7.78;;
28625;SDS011;18905;42.668;23.364;2022-10-26T04:16:20;20.15;;;8.45;;
28625;SDS011;18905;42.668;23.364;2022-10-26T04:18:45;29.30;;;8.85;;
28625;SDS011;18905;42.668;23.364;2022-10-26T04:21:11;23.25;;;11.48;;
28625;SDS011;18905;42.668;23.364;2022-10-26T04:23:36;29.58;;;12.35;;
28625;SDS011;18905;42.668;23.364;2022-10-26T04:26:03;35.05;;;13.50;;
28625;SDS011;18905;42.668;23.364;2022-10-26T04:28:29;38.80;;;13.20;;
28625;SDS011;18905;42.668;23.364;2022-10-26T04:30:55;31.63;;;13.35;;
28625;SDS011;18905;42.668;23.364;2022-10-26T04:33:20;38.90;;;14.68;;
28625;SDS011;18905;42.668;23.364;2022-10-26T04:35:45;39.30;;;15.02;;
28625;SDS011;18905;42.668;23.364;2022-10-26T04:38:12;41.63;;;16.13;;
28625;SDS011;18905;42.668;23.364;2022-10-26T04:40:37;42.38;;;16.58;;
28625;SDS011;18905;42.668;23.364;2022-10-26T04:43:03;42.63;;;15.88;;
28625;SDS011;18905;42.668;23.364;2022-10-26T04:45:28;43.90;;;15.85;;
28625;SDS011;18905;42.668;23.364;2022-10-26T04:48:08;36.83;;;14.27;;
28625;SDS011;18905;42.668;23.364;2022-10-26T04:50:35;29.17;;;12.40;;
28625;SDS011;18905;42.668;23.364;2022-10-26T04:53:01;28.70;;;13.07;;
28625;SDS011;18905;42.668;23.364;2022-10-26T04:55:27;31.65;;;11.50;;
28625;SDS011;18905;42.668;23.364;2022-10-26T04:57:52;40.38;;;13.60;;
28625;SDS011;18905;42.668;23.364;2022-10-26T05:00:18;33.03;;;15.27;;
28625;SDS011;18905;42.668;23.364;2022-10-26T05:02:43;41.13;;;16.42;;
28625;SDS011;18905;42.668;23.364;2022-10-26T05:05:09;50.78;;;16.77;;
28625;SDS011;18905;42.668;23.364;2022-10-26T05:07:34;42.13;;;16.88;;
28625;SDS011;18905;42.668;23.364;2022-10-26T05:10:00;40.25;;;15.15;;
28625;SDS011;18905;42.668;23.364;2022-10-26T05:12:25;40.17;;;16.42;;
28625;SDS011;18905;42.668;23.364;2022-10-26T05:14:51;33.53;;;15.55;;
28625;SDS011;18905;42.668;23.364;2022-10-26T05:17:16;40.00;;;15.82;;
28625;SDS011;18905;42.668;23.364;2022-10-26T05:19:41;30.95;;;14.63;;
28625;SDS011;18905;42.668;23.364;2022-10-26T05:22:07;37.53;;;15.98;;
28625;SDS011;18905;42.668;23.364;2022-10-26T05:24:32;34.33;;;15.55;;
28625;SDS011;18905;42.668;23.364;2022-10-26T05:26:58;43.85;;;15.23;;
28625;SDS011;18905;42.668;23.364;2022-10-26T05:29:24;44.63;;;17.60;;
28625;SDS011;18905;42.668;23.364;2022-10-26T05:31:50;33.97;;;15.70;;
28625;SDS011;18905;42.668;23.364;2022-10-26T05:34:15;46.00;;;15.68;;
28625;SDS011;18905;42.668;23.364;2022-10-26T05:36:40;35.42;;;16.38;;
28625;SDS011;18905;42.668;23.364;2022-10-26T05:39:06;39.08;;;15.25;;
28625;SDS011;18905;42.668;23.364;2022-10-26T05:41:31;43.22;;;16.55;;
28625;SDS011;18905;42.668;23.364;2022-10-26T05:43:57;45.13;;;16.65;;
28625;SDS011;18905;42.668;23.364;2022-10-26T05:46:22;36.55;;;15.95;;
28625;SDS011;18905;42.668;23.364;2022-10-26T05:48:48;43.17;;;16.02;;
28625;SDS011;18905;42.668;23.364;2022-10-26T05:51:13;48.00;;;15.63;;
28625;SDS011;18905;42.668;23.364;2022-10-26T05:53:38;46.42;;;15.40;;
28625;SDS011;18905;42.668;23.364;2022-10-26T05:56:20;37.53;;;13.80;;
28625;SDS011;18905;42.668;23.364;2022-10-26T05:58:59;31.92;;;13.52;;
28625;SDS011;18905;42.668;23.364;2022-10-26T06:01:31;44.58;;;12.80;;
28625;SDS011;18905;42.668;23.364;2022-10-26T06:06:43;38.22;;;12.60;;
28625;SDS011;18905;42.668;23.364;2022-10-26T06:09:10;35.65;;;11.98;;
28625;SDS011;18905;42.668;23.364;2022-10-26T06:11:36;29.98;;;11.38;;
28625;SDS011;18905;42.668;23.364;2022-10-26T06:14:02;37.92;;;10.68;;
28625;SDS011;18905;42.668;23.364;2022-10-26T06:16:33;37.65;;;12.48;;
28625;SDS011;18905;42.668;23.364;2022-10-26T06:25:57;40.78;;;12.65;;
28625;SDS011;18905;42.668;23.364;2022-10-26T06:31:23;27.45;;;11.70;;
28625;SDS011;18905;42.668;23.364;2022-10-26T06:33:48;40.35;;;12.85;;
28625;SDS011;18905;42.668;23.364;2022-10-26T06:36:19;40.95;;;13.43;;
28625;SDS011;18905;42.668;23.364;2022-10-26T06:38:47;29.08;;;12.27;;
28625;SDS011;18905;42.668;23.364;2022-10-26T06:41:18;33.75;;;11.45;;
28625;SDS011;18905;42.668;23.364;2022-10-26T06:43:46;36.22;;;12.07;;
28625;SDS011;18905;42.668;23.364;2022-10-26T06:49:04;30.10;;;12.50;;
28625;SDS011;18905;42.668;23.364;2022-10-26T06:54:55;41.03;;;13.30;;
28625;SDS011;18905;42.668;23.364;2022-10-26T06:57:22;32.95;;;13.30;;
28625;SDS011;18905;42.668;23.364;2022-10-26T06:59:49;33.13;;;13.38;;
28625;SDS011;18905;42.668;23.364;2022-10-26T07:07:25;36.43;;;12.57;;
28625;SDS011;18905;42.668;23.364;2022-10-26T07:09:54;30.08;;;13.30;;
28625;SDS011;18905;42.668;23.364;2022-10-26T07:12:19;32.08;;;13.65;;
28625;SDS011;18905;42.668;23.364;2022-10-26T07:14:44;36.88;;;13.35;;
28625;SDS011;18905;42.668;23.364;2022-10-26T07:17:10;35.72;;;14.73;;
28625;SDS011;18905;42.668;23.364;2022-10-26T07:19:36;38.85;;;14.98;;
28625;SDS011;18905;42.668;23.364;2022-10-26T07:22:01;31.90;;;13.65;;
28625;SDS011;18905;42.668;23.364;2022-10-26T07:24:27;25.75;;;10.85;;
28625;SDS011;18905;42.668;23.364;2022-10-26T07:26:53;29.77;;;12.10;;
28625;SDS011;18905;42.668;23.364;2022-10-26T07:29:20;30.13;;;10.60;;
28625;SDS011;18905;42.668;23.364;2022-10-26T07:31:49;29.75;;;10.75;;
28625;SDS011;18905;42.668;23.364;2022-10-26T07:34:15;14.90;;;7.53;;
28625;SDS011;18905;42.668;23.364;2022-10-26T07:36:40;16.92;;;8.02;;
28625;SDS011;18905;42.668;23.364;2022-10-26T07:39:05;23.95;;;7.32;;
28625;SDS011;18905;42.668;23.364;2022-10-26T07:41:31;16.05;;;7.00;;
28625;SDS011;18905;42.668;23.364;2022-10-26T07:43:57;16.67;;;7.20;;
28625;SDS011;18905;42.668;23.364;2022-10-26T07:46:22;14.55;;;6.60;;
28625;SDS011;18905;42.668;23.364;2022-10-26T07:48:48;18.70;;;6.55;;
28625;SDS011;18905;42.668;23.364;2022-10-26T07:51:14;11.88;;;6.10;;
28625;SDS011;18905;42.668;23.364;2022-10-26T07:53:39;18.08;;;5.80;;
28625;SDS011;18905;42.668;23.364;2022-10-26T07:56:05;16.85;;;6.38;;
28625;SDS011;18905;42.668;23.364;2022-10-26T07:58:31;11.02;;;5.25;;
28625;SDS011;18905;42.668;23.364;2022-10-26T08:00:57;13.50;;;5.43;;
28625;SDS011;18905;42.668;23.364;2022-10-26T08:03:28;9.68;;;5.60;;
28625;SDS011;18905;42.668;23.364;2022-10-26T08:05:54;12.30;;;5.50;;
28625;SDS011;18905;42.668;23.364;2022-10-26T08:08:20;17.13;;;7.43;;
28625;SDS011;18905;42.668;23.364;2022-10-26T08:10:46;16.75;;;5.57;;
28625;SDS011;18905;42.668;23.364;2022-10-26T08:13:12;14.13;;;5.82;;
28625;SDS011;18905;42.668;23.364;2022-10-26T08:15:39;14.13;;;5.18;;
28625;SDS011;18905;42.668;23.364;2022-10-26T08:18:05;18.35;;;5.60;;
28625;SDS011;18905;42.668;23.364;2022-10-26T08:20:31;16.33;;;5.63;;
28625;SDS011;18905;42.668;23.364;2022-10-26T08:22:56;9.40;;;5.00;;
28625;SDS011;18905;42.668;23.364;2022-10-26T08:25:23;11.32;;;5.15;;
28625;SDS011;18905;42.668;23.364;2022-10-26T08:27:48;10.70;;;5.40;;
28625;SDS011;18905;42.668;23.364;2022-10-26T08:30:14;8.55;;;4.30;;
28625;SDS011;18905;42.668;23.364;2022-10-26T08:32:40;10.65;;;4.63;;
28625;SDS011;18905;42.668;23.364;2022-10-26T08:35:06;11.23;;;4.75;;
28625;SDS011;18905;42.668;23.364;2022-10-26T08:37:33;11.15;;;4.47;;
28625;SDS011;18905;42.668;23.364;2022-10-26T08:39:58;7.97;;;3.97;;
28625;SDS011;18905;42.668;23.364;2022-10-26T08:42:27;14.82;;;5.15;;
28625;SDS011;18905;42.668;23.364;2022-10-26T08:45:08;12.73;;;4.88;;
28625;SDS011;18905;42.668;23.364;2022-10-26T08:47:45;11.23;;;4.88;;
28625;SDS011;18905;42.668;23.364;2022-10-26T08:52:48;9.23;;;4.95;;
28625;SDS011;18905;42.668;23.364;2022-10-26T08:55:20;12.55;;;5.13;;
28625;SDS011;18905;42.668;23.364;2022-10-26T08:57:50;11.52;;;4.28;;
28625;SDS011;18905;42.668;23.364;2022-10-26T09:00:21;13.88;;;4.70;;
28625;SDS011;18905;42.668;23.364;2022-10-26T09:02:52;11.48;;;4.65;;
28625;SDS011;18905;42.668;23.364;2022-10-26T09:05:21;15.23;;;4.18;;
28625;SDS011;18905;42.668;23.364;2022-10-26T09:25:42;9.43;;;3.47;;
28625;SDS011;18905;42.668;23.364;2022-10-26T09:28:16;10.77;;;3.88;;
28625;SDS011;18905;42.668;23.364;2022-10-26T09:30:43;7.20;;;3.20;;
28625;SDS011;18905;42.668;23.364;2022-10-26T09:35:41;11.00;;;3.67;;
28625;SDS011;18905;42.668;23.364;2022-10-26T09:38:23;11.15;;;3.25;;
28625;SDS011;18905;42.668;23.364;2022-10-26T09:40:55;10.13;;;3.22;;
28625;SDS011;18905;42.668;23.364;2022-10-26T09:43:26;10.25;;;3.33;;
28625;SDS011;18905;42.668;23.364;2022-10-26T09:45:56;6.90;;;3.50;;
28625;SDS011;18905;42.668;23.364;2022-10-26T09:50:59;8.27;;;3.03;;
28625;SDS011;18905;42.668;23.364;2022-10-26T09:53:25;7.03;;;2.25;;
28625;SDS011;18905;42.668;23.364;2022-10-26T09:55:58;7.95;;;2.88;;
28625;SDS011;18905;42.668;23.364;2022-10-26T09:58:28;17.52;;;2.97;;
28625;SDS011;18905;42.668;23.364;2022-10-26T10:00:55;7.28;;;2.78;;
28625;SDS011;18905;42.668;23.364;2022-10-26T10:03:26;5.40;;;2.70;;
28625;SDS011;18905;42.668;23.364;2022-10-26T10:05:52;7.60;;;2.75;;
28625;SDS011;18905;42.668;23.364;2022-10-26T10:08:22;4.07;;;2.13;;
28625;SDS011;18905;42.668;23.364;2022-10-26T10:13:23;13.70;;;2.92;;
28625;SDS011;18905;42.668;23.364;2022-10-26T10:16:02;5.22;;;2.17;;
28625;SDS011;18905;42.668;23.364;2022-10-26T10:18:28;5.85;;;1.92;;
28625;SDS011;18905;42.668;23.364;2022-10-26T10:20:55;6.07;;;2.33;;
28625;SDS011;18905;42.668;23.364;2022-10-26T10:23:26;4.95;;;2.85;;
28625;SDS011;18905;42.668;23.364;2022-10-26T10:26:21;4.72;;;2.08;;
28625;SDS011;18905;42.668;23.364;2022-10-26T10:28:55;8.38;;;2.67;;
28625;SDS011;18905;42.668;23.364;2022-10-26T10:31:29;6.28;;;2.13;;
28625;SDS011;18905;42.668;23.364;2022-10-26T10:33:55;9.45;;;2.58;;
28625;SDS011;18905;42.668;23.364;2022-10-26T10:36:22;6.90;;;2.60;;
28625;SDS011;18905;42.668;23.364;2022-10-26T10:38:51;6.60;;;3.08;;
28625;SDS011;18905;42.668;23.364;2022-10-26T10:41:23;8.70;;;2.50;;
28625;SDS011;18905;42.668;23.364;2022-10-26T10:44:07;6.53;;;2.50;;
28625;SDS011;18905;42.668;23.364;2022-10-26T10:46:44;6.95;;;2.78;;
28625;SDS011;18905;42.668;23.364;2022-10-26T10:49:44;3.60;;;2.00;;
28625;SDS011;18905;42.668;23.364;2022-10-26T10:52:02;10.27;;;2.53;;
28625;SDS011;18905;42.668;23.364;2022-10-26T10:54:32;5.97;;;2.20;;
28625;SDS011;18905;42.668;23.364;2022-10-26T11:05:28;12.43;;;2.53;;
28625;SDS011;18905;42.668;23.364;2022-10-26T11:08:01;6.43;;;2.47;;
28625;SDS011;18905;42.668;23.364;2022-10-26T11:10:35;6.97;;;2.60;;
28625;SDS011;18905;42.668;23.364;2022-10-26T11:13:23;7.07;;;2.95;;
28625;SDS011;18905;42.668;23.364;2022-10-26T11:15:55;7.07;;;2.83;;
28625;SDS011;18905;42.668;23.364;2022-10-26T11:18:28;7.93;;;2.78;;
28625;SDS011;18905;42.668;23.364;2022-10-26T11:21:02;6.60;;;2.22;;
28625;SDS011;18905;42.668;23.364;2022-10-26T11:23:42;9.70;;;2.78;;
28625;SDS011;18905;42.668;23.364;2022-10-26T11:26:20;6.38;;;2.38;;
28625;SDS011;18905;42.668;23.364;2022-10-26T11:31:41;6.47;;;2.45;;
28625;SDS011;18905;42.668;23.364;2022-10-26T11:37:01;5.25;;;2.15;;
28625;SDS011;18905;42.668;23.364;2022-10-26T11:39:37;9.27;;;2.60;;
28625;SDS011;18905;42.668;23.364;2022-10-26T11:47:42;11.52;;;2.70;;
28625;SDS011;18905;42.668;23.364;2022-10-26T11:50:31;6.45;;;2.03;;
28625;SDS011;18905;42.668;23.364;2022-10-26T11:53:07;7.18;;;2.10;;
28625;SDS011;18905;42.668;23.364;2022-10-26T11:55:44;6.13;;;1.80;;
28625;SDS011;18905;42.668;23.364;2022-10-26T11:58:16;10.15;;;2.35;;
28625;SDS011;18905;42.668;23.364;2022-10-26T12:00:44;3.55;;;1.98;;
28625;SDS011;18905;42.668;23.364;2022-10-26T12:03:14;7.07;;;1.92;;
28625;SDS011;18905;42.668;23.364;2022-10-26T12:08:19;3.50;;;1.25;;
28625;SDS011;18905;42.668;23.364;2022-10-26T12:15:59;5.37;;;1.57;;
28625;SDS011;18905;42.668;23.364;2022-10-26T12:18:42;2.60;;;1.33;;
28625;SDS011;18905;42.668;23.364;2022-10-26T12:21:27;3.53;;;1.38;;
28625;SDS011;18905;42.668;23.364;2022-10-26T12:23:57;1.67;;;1.40;;
28625;SDS011;18905;42.668;23.364;2022-10-26T12:33:56;7.05;;;1.35;;
28625;SDS011;18905;42.668;23.364;2022-10-26T14:35:22;9.73;;;2.60;;
28625;SDS011;18905;42.668;23.364;2022-10-26T14:37:52;4.85;;;2.35;;
28625;SDS011;18905;42.668;23.364;2022-10-26T14:42:58;4.43;;;2.17;;
28625;SDS011;18905;42.668;23.364;2022-10-26T15:03:34;14.27;;;2.95;;
28625;SDS011;18905;42.668;23.364;2022-10-26T15:06:20;9.20;;;1.92;;
28625;SDS011;18905;42.668;23.364;2022-10-26T15:09:00;11.15;;;2.70;;
28625;SDS011;18905;42.668;23.364;2022-10-26T15:11:29;5.03;;;1.90;;
28625;SDS011;18905;42.668;23.364;2022-10-26T15:13:56;8.52;;;2.25;;
28625;SDS011;18905;42.668;23.364;2022-10-26T15:16:23;11.18;;;2.78;;
28625;SDS011;18905;42.668;23.364;2022-10-26T15:18:52;9.10;;;2.50;;
28625;SDS011;18905;42.668;23.364;2022-10-26T15:21:26;6.70;;;2.40;;
28625;SDS011;18905;42.668;23.364;2022-10-26T15:23:55;11.48;;;2.78;;
28625;SDS011;18905;42.668;23.364;2022-10-26T15:26:22;18.05;;;3.72;;
28625;SDS011;18905;42.668;23.364;2022-10-26T15:28:48;14.93;;;3.35;;
28625;SDS011;18905;42.668;23.364;2022-10-26T15:33:46;11.82;;;3.08;;
28625;SDS011;18905;42.668;23.364;2022-10-26T15:36:28;11.95;;;3.38;;
28625;SDS011;18905;42.668;23.364;2022-10-26T15:38:57;10.35;;;3.33;;
28625;SDS011;18905;42.668;23.364;2022-10-26T15:43:59;16.55;;;4.47;;
28625;SDS011;18905;42.668;23.364;2022-10-26T15:46:31;11.52;;;3.35;;
28625;SDS011;18905;42.668;23.364;2022-10-26T15:48:59;8.40;;;3.10;;
28625;SDS011;18905;42.668;23.364;2022-10-26T15:51:27;10.02;;;3.88;;
28625;SDS011;18905;42.668;23.364;2022-10-26T15:53:54;13.27;;;3.45;;
28625;SDS011;18905;42.668;23.364;2022-10-26T15:56:22;13.55;;;3.30;;
28625;SDS011;18905;42.668;23.364;2022-10-26T15:58:49;10.60;;;3.38;;
28625;SDS011;18905;42.668;23.364;2022-10-26T16:01:17;13.38;;;3.33;;
28625;SDS011;18905;42.668;23.364;2022-10-26T16:03:44;10.93;;;3.13;;
28625;SDS011;18905;42.668;23.364;2022-10-26T16:06:14;15.93;;;4.85;;
28625;SDS011;18905;42.668;23.364;2022-10-26T16:08:43;16.60;;;5.07;;
28625;SDS011;18905;42.668;23.364;2022-10-26T16:11:13;31.15;;;10.30;;
28625;SDS011;18905;42.668;23.364;2022-10-26T16:13:39;29.17;;;11.23;;
28625;SDS011;18905;42.668;23.364;2022-10-26T16:16:07;34.28;;;11.25;;
28625;SDS011;18905;42.668;23.364;2022-10-26T16:18:36;58.83;;;16.15;;
28625;SDS011;18905;42.668;23.364;2022-10-26T16:21:01;45.10;;;14.65;;
28625;SDS011;18905;42.668;23.364;2022-10-26T16:23:27;49.35;;;15.23;;
28625;SDS011;18905;42.668;23.364;2022-10-26T16:25:53;74.15;;;22.52;;
28625;SDS011;18905;42.668;23.364;2022-10-26T16:28:18;54.75;;;18.60;;
28625;SDS011;18905;42.668;23.364;2022-10-26T16:30:43;54.70;;;17.38;;
28625;SDS011;18905;42.668;23.364;2022-10-26T16:33:09;85.45;;;22.98;;
28625;SDS011;18905;42.668;23.364;2022-10-26T16:35:34;57.17;;;18.15;;
28625;SDS011;18905;42.668;23.364;2022-10-26T16:38:00;45.88;;;16.45;;
28625;SDS011;18905;42.668;23.364;2022-10-26T16:40:25;57.50;;;15.93;;
28625;SDS011;18905;42.668;23.364;2022-10-26T16:42:50;33.92;;;11.77;;
28625;SDS011;18905;42.668;23.364;2022-10-26T16:45:16;12.95;;;5.80;;
28625;SDS011;18905;42.668;23.364;2022-10-26T16:47:41;12.05;;;3.92;;
28625;SDS011;18905;42.668;23.364;2022-10-26T16:50:10;9.73;;;3.75;;
28625;SDS011;18905;42.668;23.364;2022-10-26T16:52:37;17.60;;;5.15;;
28625;SDS011;18905;42.668;23.364;2022-10-26T16:55:03;18.05;;;6.38;;
28625;SDS011;18905;42.668;23.364;2022-10-26T16:57:30;9.82;;;4.35;;
28625;SDS011;18905;42.668;23.364;2022-10-26T16:59:55;9.95;;;5.18;;
28625;SDS011;18905;42.668;23.364;2022-10-26T17:02:21;208.63;;;88.50;;
28625;SDS011;18905;42.668;23.364;2022-10-26T17:04:47;814.33;;;346.83;;
28625;SDS011;18905;42.668;23.364;2022-10-26T17:07:12;993.60;;;487.33;;
28625;SDS011;18905;42.668;23.364;2022-10-26T17:09:38;866.65;;;474.10;;
28625;SDS011;18905;42.668;23.364;2022-10-26T17:12:04;292.08;;;123.72;;
28625;SDS011;18905;42.668;23.364;2022-10-26T17:14:30;278.15;;;118.70;;
28625;SDS011;18905;42.668;23.364;2022-10-26T17:16:56;264.55;;;105.32;;
28625;SDS011;18905;42.668;23.364;2022-10-26T17:19:21;1999.90;;;844.08;;
28625;SDS011;18905;42.668;23.364;2022-10-26T17:21:47;747.22;;;355.95;;
28625;SDS011;18905;42.668;23.364;2022-10-26T17:24:12;748.90;;;348.95;;
28625;SDS011;18905;42.668;23.364;2022-10-26T17:26:38;613.88;;;270.52;;
28625;SDS011;18905;42.668;23.364;2022-10-26T17:29:04;551.65;;;239.48;;
28625;SDS011;18905;42.668;23.364;2022-10-26T17:31:30;416.58;;;173.38;;
28625;SDS011;18905;42.668;23.364;2022-10-26T17:33:55;319.15;;;127.57;;
28625;SDS011;18905;42.668;23.364;2022-10-26T17:36:21;256.45;;;98.80;;
28625;SDS011;18905;42.668;23.364;2022-10-26T17:38:48;151.48;;;61.10;;
28625;SDS011;18905;42.668;23.364;2022-10-26T17:41:16;136.45;;;52.67;;
28625;SDS011;18905;42.668;23.364;2022-10-26T17:43:42;82.22;;;32.70;;
28625;SDS011;18905;42.668;23.364;2022-10-26T17:46:09;120.43;;;47.58;;
28625;SDS011;18905;42.668;23.364;2022-10-26T17:48:39;69.80;;;28.55;;
28625;SDS011;18905;42.668;23.364;2022-10-26T17:51:06;60.80;;;25.27;;
28625;SDS011;18905;42.668;23.364;2022-10-26T17:53:35;60.33;;;25.48;;
28625;SDS011;18905;42.668;23.364;2022-10-26T17:56:05;44.03;;;16.48;;
28625;SDS011;18905;42.668;23.364;2022-10-26T17:58:32;38.60;;;17.02;;
28625;SDS011;18905;42.668;23.364;2022-10-26T18:01:02;26.40;;;11.65;;
28625;SDS011;18905;42.668;23.364;2022-10-26T18:03:29;18.33;;;8.40;;
28625;SDS011;18905;42.668;23.364;2022-10-26T18:05:55;30.05;;;13.48;;
28625;SDS011;18905;42.668;23.364;2022-10-26T18:08:21;24.25;;;9.82;;
28625;SDS011;18905;42.668;23.364;2022-10-26T18:10:50;25.20;;;10.52;;
28625;SDS011;18905;42.668;23.364;2022-10-26T18:13:17;20.52;;;9.13;;
28625;SDS011;18905;42.668;23.364;2022-10-26T18:15:43;21.35;;;9.45;;
28625;SDS011;18905;42.668;23.364;2022-10-26T18:18:09;20.35;;;8.25;;
28625;SDS011;18905;42.668;23.364;2022-10-26T18:20:35;19.27;;;9.45;;
28625;SDS011;18905;42.668;23.364;2022-10-26T18:23:00;17.92;;;7.78;;
28625;SDS011;18905;42.668;23.364;2022-10-26T18:25:26;16.52;;;7.53;;
28625;SDS011;18905;42.668;23.364;2022-10-26T18:27:52;14.57;;;7.05;;
28625;SDS011;18905;42.668;23.364;2022-10-26T18:30:17;19.60;;;7.32;;
28625;SDS011;18905;42.668;23.364;2022-10-26T18:32:43;13.10;;;6.80;;
28625;SDS011;18905;42.668;23.364;2022-10-26T18:35:08;14.00;;;5.97;;
28625;SDS011;18905;42.668;23.364;2022-10-26T18:37:34;17.13;;;6.97;;
28625;SDS011;18905;42.668;23.364;2022-10-26T18:39:59;11.75;;;5.97;;
28625;SDS011;18905;42.668;23.364;2022-10-26T18:42:24;12.05;;;5.90;;
28625;SDS011;18905;42.668;23.364;2022-10-26T18:44:50;11.27;;;6.10;;
28625;SDS011;18905;42.668;23.364;2022-10-26T18:47:15;15.52;;;7.85;;
28625;SDS011;18905;42.668;23.364;2022-10-26T18:49:41;62.38;;;39.75;;
28625;SDS011;18905;42.668;23.364;2022-10-26T18:52:06;182.00;;;138.00;;